Time;durP1;ratioP1;P1;durP2;ratioP2;P2;SDS_P1;SDS_P2;PMS_P1;PMS_P2;Temp;Humidity;BMP_temperature;BMP_pressure;BME280_temperature;BME280_humidity;BME280_pressure;Samples;Min_cycle;Max_cycle;Signal;HPM_P1;HPM_P2
2021/08/08 00:01:43;;;;;;;20.13;19.13;;;16.90;88.20;;;;;;5053910;28;20458;-72
2021/08/08 00:04:11;;;;;;;20.10;19.10;;;16.90;88.20;;;;;;5047243;28;20451;-73
2021/08/08 00:06:38;;;;;;;20.40;19.20;;;16.90;88.40;;;;;;5045755;28;20489;-73
2021/08/08 00:09:05;;;;;;;19.57;18.63;;;16.90;88.50;;;;;;5043406;28;20459;-72
2021/08/08 00:11:32;;;;;;;20.40;19.30;;;16.80;88.40;;;;;;5047193;28;20990;-72
2021/08/08 00:13:59;;;;;;;20.23;19.03;;;16.80;88.40;;;;;;5048551;28;20550;-72
2021/08/08 00:16:28;;;;;;;20.17;19.17;;;16.90;87.90;;;;;;5061320;28;20499;-73
2021/08/08 00:18:55;;;;;;;19.80;18.90;;;16.90;87.90;;;;;;5055231;28;21014;-71
2021/08/08 00:21:23;;;;;;;20.83;19.63;;;16.80;88.10;;;;;;5058367;28;20465;-72
2021/08/08 00:23:50;;;;;;;20.43;19.30;;;16.80;88.20;;;;;;5054182;28;20462;-72
2021/08/08 00:26:17;;;;;;;20.10;19.10;;;16.90;88.10;;;;;;5064770;28;20486;-72
2021/08/08 00:28:48;;;;;;;20.50;19.30;;;16.90;88.00;;;;;;5057560;28;21018;-72
2021/08/08 00:31:16;;;;;;;19.80;18.80;;;16.90;88.10;;;;;;5061028;28;20470;-72
2021/08/08 00:33:43;;;;;;;20.20;19.10;;;16.80;88.30;;;;;;5051045;28;20464;-72
2021/08/08 00:36:10;;;;;;;20.80;19.47;;;16.80;88.30;;;;;;5057455;28;20600;-72
2021/08/08 00:38:38;;;;;;;20.50;19.60;;;16.80;88.30;;;;;;5056459;28;20996;-72
2021/08/08 00:41:05;;;;;;;21.67;20.20;;;16.80;88.50;;;;;;5052997;28;20451;-72
2021/08/08 00:43:32;;;;;;;20.80;19.80;;;16.80;88.50;;;;;;5062129;28;20816;-72
2021/08/08 00:45:58;;;;;;;21.07;19.77;;;16.80;88.30;;;;;;5054281;28;20468;-72
2021/08/08 00:48:25;;;;;;;20.50;19.40;;;16.80;88.60;;;;;;5051174;28;20459;-72
2021/08/08 00:50:52;;;;;;;20.10;19.10;;;16.80;88.80;;;;;;5057529;28;20542;-72
2021/08/08 00:53:20;;;;;;;20.37;19.27;;;16.80;88.80;;;;;;5051315;28;20559;-72
2021/08/08 00:55:48;;;;;;;19.97;18.93;;;16.80;88.90;;;;;;5050240;28;20461;-72
2021/08/08 00:58:15;;;;;;;19.97;18.90;;;16.70;89.20;;;;;;5053010;28;20852;-73
2021/08/08 01:00:43;;;;;;;20.80;19.60;;;16.80;89.10;;;;;;5050808;28;20461;-72
2021/08/08 01:03:14;;;;;;;21.00;19.90;;;16.70;89.10;;;;;;5060979;28;20917;-72
2021/08/08 01:05:46;;;;;;;20.27;19.17;;;16.70;89.30;;;;;;5048571;28;20487;-72
2021/08/08 01:08:18;;;;;;;20.90;19.80;;;16.70;89.30;;;;;;5048466;28;20489;-72
2021/08/08 01:10:46;;;;;;;21.00;19.77;;;16.70;89.40;;;;;;5049752;28;20465;-72
2021/08/08 01:13:15;;;;;;;20.43;19.00;;;16.50;90.00;;;;;;5050707;28;20451;-72
2021/08/08 01:15:43;;;;;;;19.30;18.40;;;16.40;90.50;;;;;;5050645;28;20467;-70
2021/08/08 01:18:13;;;;;;;24.30;22.47;;;16.50;90.30;;;;;;5056242;28;20948;-72
2021/08/08 01:20:40;;;;;;;20.73;19.53;;;16.40;90.50;;;;;;5059951;28;21027;-72
2021/08/08 01:23:10;;;;;;;21.53;20.23;;;16.40;90.80;;;;;;5056233;28;20826;-72
2021/08/08 01:25:39;;;;;;;20.27;19.27;;;16.30;90.90;;;;;;5047862;28;20477;-72
2021/08/08 01:28:06;;;;;;;19.80;18.80;;;16.30;90.80;;;;;;5059189;28;20566;-72
2021/08/08 01:30:33;;;;;;;20.30;19.20;;;16.40;90.20;;;;;;5054530;28;20798;-71
2021/08/08 01:33:02;;;;;;;20.17;19.13;;;16.30;90.20;;;;;;5052096;28;20455;-70
2021/08/08 01:35:29;;;;;;;20.43;18.93;;;16.30;90.20;;;;;;5045170;28;20490;-70
2021/08/08 01:37:56;;;;;;;20.40;19.30;;;16.30;90.10;;;;;;5053679;28;20814;-70
2021/08/08 01:40:27;;;;;;;20.10;19.20;;;16.40;90.30;;;;;;5048284;28;20828;-70
2021/08/08 01:42:57;;;;;;;20.13;19.03;;;16.30;90.30;;;;;;5060123;28;20448;-70
2021/08/08 01:45:24;;;;;;;21.53;20.33;;;16.30;90.50;;;;;;5050430;28;20821;-70
2021/08/08 01:47:55;;;;;;;20.53;19.40;;;16.30;90.50;;;;;;5053413;28;20482;-70
2021/08/08 01:50:23;;;;;;;20.27;19.27;;;16.40;90.70;;;;;;5040162;28;20465;-70
2021/08/08 01:52:50;;;;;;;19.37;18.30;;;16.40;90.60;;;;;;5051010;28;20538;-70
2021/08/08 01:55:18;;;;;;;20.70;19.50;;;16.40;90.40;;;;;;5050509;28;21166;-70
2021/08/08 01:57:45;;;;;;;20.20;19.20;;;16.40;90.40;;;;;;5057219;28;20475;-70
2021/08/08 02:00:19;;;;;;;20.83;19.60;;;16.30;90.40;;;;;;5050203;28;20499;-70
2021/08/08 02:02:50;;;;;;;19.60;18.60;;;16.30;90.50;;;;;;5053734;28;20466;-70
2021/08/08 02:05:19;;;;;;;19.77;18.60;;;16.30;90.40;;;;;;5058463;28;20467;-70
2021/08/08 02:07:46;;;;;;;20.03;18.70;;;16.30;90.40;;;;;;5056803;28;20473;-70
2021/08/08 02:10:13;;;;;;;20.00;18.77;;;16.20;90.60;;;;;;5055647;28;20465;-70
2021/08/08 02:12:40;;;;;;;19.50;18.43;;;16.20;90.70;;;;;;5052707;28;21055;-72
2021/08/08 02:15:09;;;;;;;20.13;18.33;;;16.10;90.70;;;;;;5054228;28;20481;-72
2021/08/08 02:17:38;;;;;;;18.90;18.00;;;16.10;90.70;;;;;;5049649;28;20532;-72
2021/08/08 02:20:06;;;;;;;19.10;18.20;;;16.10;90.90;;;;;;5049528;28;20455;-72
2021/08/08 02:22:34;;;;;;;19.93;18.63;;;16.10;90.90;;;;;;5058267;28;20451;-71
2021/08/08 02:25:01;;;;;;;19.70;18.40;;;16.00;90.80;;;;;;5055178;28;20554;-72
2021/08/08 02:27:28;;;;;;;19.87;18.60;;;15.90;91.10;;;;;;5048536;28;20490;-72
2021/08/08 02:29:54;;;;;;;19.60;18.70;;;15.90;91.50;;;;;;5047667;28;20937;-72
2021/08/08 02:32:21;;;;;;;20.33;18.77;;;15.80;91.50;;;;;;5048677;28;20463;-72
2021/08/08 02:34:50;;;;;;;18.90;18.00;;;15.80;91.60;;;;;;5054780;28;20458;-72
2021/08/08 02:37:17;;;;;;;22.47;21.17;;;15.70;91.90;;;;;;5050768;28;20486;-72
2021/08/08 02:39:43;;;;;;;19.10;17.90;;;15.70;92.00;;;;;;5047294;28;20534;-72
2021/08/08 02:42:10;;;;;;;19.27;18.13;;;15.70;92.10;;;;;;5047159;28;21397;-72
2021/08/08 02:44:37;;;;;;;19.90;18.70;;;15.70;92.10;;;;;;5051899;28;20462;-72
2021/08/08 02:47:04;;;;;;;17.90;17.00;;;15.60;92.20;;;;;;5051249;28;20980;-72
2021/08/08 02:49:31;;;;;;;18.30;17.40;;;15.60;92.40;;;;;;5046607;28;20459;-73
2021/08/08 02:51:59;;;;;;;18.97;17.97;;;15.60;92.30;;;;;;5047304;28;20554;-70
2021/08/08 02:54:27;;;;;;;19.70;18.20;;;15.70;92.20;;;;;;5050860;28;20557;-70
2021/08/08 02:56:53;;;;;;;18.20;17.40;;;15.70;91.90;;;;;;5046861;28;20475;-70
2021/08/08 02:59:20;;;;;;;19.53;18.33;;;15.60;91.90;;;;;;5049925;28;20474;-71
2021/08/08 03:01:47;;;;;;;19.03;17.83;;;15.50;92.00;;;;;;5048394;28;20836;-70
2021/08/08 03:04:14;;;;;;;17.53;16.73;;;15.50;92.20;;;;;;5048465;28;20455;-69
2021/08/08 03:06:45;;;;;;;18.57;17.40;;;15.50;92.20;;;;;;5039454;28;20543;-72
2021/08/08 03:09:14;;;;;;;17.77;16.87;;;15.50;92.40;;;;;;5046293;28;20455;-72
2021/08/08 03:11:45;;;;;;;18.97;17.53;;;15.50;92.40;;;;;;5048154;28;20553;-72
2021/08/08 03:14:13;;;;;;;17.90;17.10;;;15.50;92.30;;;;;;5047482;28;20474;-72
2021/08/08 03:16:41;;;;;;;17.80;16.80;;;15.40;92.30;;;;;;5047389;28;20475;-73
2021/08/08 03:19:08;;;;;;;17.77;16.87;;;15.40;92.40;;;;;;5047294;28;20462;-72
2021/08/08 03:21:35;;;;;;;18.07;17.27;;;15.40;92.40;;;;;;5047663;28;20836;-72
2021/08/08 03:24:02;;;;;;;18.83;17.53;;;15.40;92.40;;;;;;5048129;28;20450;-72
2021/08/08 03:26:30;;;;;;;17.57;16.67;;;15.40;92.50;;;;;;5053439;28;20478;-71
2021/08/08 03:28:57;;;;;;;17.63;16.63;;;15.30;92.70;;;;;;5046841;28;20545;-72
2021/08/08 03:31:24;;;;;;;17.90;17.00;;;15.30;92.70;;;;;;5047834;28;20904;-72
2021/08/08 03:33:51;;;;;;;17.33;16.43;;;15.30;92.60;;;;;;5049302;28;20465;-72
2021/08/08 03:36:18;;;;;;;17.90;17.00;;;15.30;92.60;;;;;;5049386;28;20501;-72
2021/08/08 03:38:45;;;;;;;17.80;16.80;;;15.20;92.70;;;;;;5048948;28;20469;-72
2021/08/08 03:41:12;;;;;;;18.53;17.30;;;15.20;92.70;;;;;;5047261;28;20646;-72
2021/08/08 03:43:40;;;;;;;18.60;17.70;;;15.20;92.80;;;;;;5047976;28;20487;-72
2021/08/08 03:46:07;;;;;;;18.63;17.70;;;15.20;92.80;;;;;;5049833;28;20459;-72
2021/08/08 03:48:34;;;;;;;17.37;16.57;;;15.20;92.70;;;;;;5042569;28;20993;-72
2021/08/08 03:51:01;;;;;;;18.10;17.00;;;15.20;92.80;;;;;;5051909;28;20467;-72
2021/08/08 03:53:27;;;;;;;18.43;17.03;;;15.10;92.90;;;;;;5064217;28;20453;-72
2021/08/08 03:55:54;;;;;;;17.27;16.53;;;15.20;92.90;;;;;;5055902;28;20455;-72
2021/08/08 03:58:22;;;;;;;18.20;17.10;;;15.10;92.80;;;;;;5062592;28;20539;-72
2021/08/08 04:00:50;;;;;;;18.80;17.70;;;15.10;93.00;;;;;;5061419;28;20477;-72
2021/08/08 04:03:17;;;;;;;18.00;17.10;;;15.10;93.20;;;;;;5055225;28;20546;-72
2021/08/08 04:05:44;;;;;;;18.00;17.00;;;15.10;93.10;;;;;;5051005;28;20555;-72
2021/08/08 04:08:10;;;;;;;18.50;17.40;;;15.10;93.10;;;;;;5051305;28;20483;-72
2021/08/08 04:10:37;;;;;;;18.43;17.53;;;15.10;93.30;;;;;;5051592;28;20668;-72
2021/08/08 04:13:04;;;;;;;18.40;17.50;;;15.10;93.20;;;;;;5052162;28;20458;-72
2021/08/08 04:15:31;;;;;;;18.23;17.33;;;15.20;92.90;;;;;;5053961;28;20832;-72
2021/08/08 04:17:59;;;;;;;18.60;17.50;;;15.20;92.90;;;;;;5053842;28;21053;-73
2021/08/08 04:20:26;;;;;;;18.97;17.50;;;15.20;92.90;;;;;;5050347;28;20801;-72
2021/08/08 04:22:53;;;;;;;18.67;17.50;;;15.30;92.70;;;;;;5058551;28;21154;-72
2021/08/08 04:25:20;;;;;;;18.73;17.60;;;15.30;92.60;;;;;;5051785;28;20542;-72
2021/08/08 04:27:47;;;;;;;18.23;17.23;;;15.30;92.70;;;;;;5051161;28;20482;-72
2021/08/08 04:30:14;;;;;;;19.73;17.93;;;15.40;92.50;;;;;;5049766;28;20455;-72
2021/08/08 04:32:40;;;;;;;18.43;16.87;;;15.40;92.60;;;;;;5052721;28;20462;-72
2021/08/08 04:35:09;;;;;;;18.90;17.67;;;15.50;92.30;;;;;;5048845;28;20543;-72
2021/08/08 04:37:36;;;;;;;18.00;17.00;;;15.50;92.00;;;;;;5051339;28;20487;-73
2021/08/08 04:40:03;;;;;;;17.97;16.97;;;15.60;91.40;;;;;;5051301;28;21234;-72
2021/08/08 04:42:30;;;;;;;19.40;18.30;;;15.60;91.20;;;;;;5057224;28;20497;-72
2021/08/08 04:44:57;;;;;;;17.60;16.80;;;15.70;90.90;;;;;;5050878;28;20517;-72
2021/08/08 04:47:24;;;;;;;18.37;17.37;;;15.70;90.80;;;;;;5053194;28;20497;-72
2021/08/08 04:49:51;;;;;;;19.03;17.73;;;15.80;90.70;;;;;;5040406;28;20646;-72
2021/08/08 04:52:19;;;;;;;18.60;17.50;;;15.70;90.70;;;;;;5056671;28;20458;-72
2021/08/08 04:54:46;;;;;;;19.83;18.43;;;15.80;90.60;;;;;;5053604;28;20465;-72
2021/08/08 04:57:13;;;;;;;18.87;17.93;;;15.90;90.40;;;;;;5058112;28;20550;-72
2021/08/08 04:59:40;;;;;;;18.37;17.57;;;15.90;90.20;;;;;;5048802;28;20463;-72
2021/08/08 05:02:07;;;;;;;20.53;19.53;;;16.00;89.70;;;;;;5059902;28;20455;-72
2021/08/08 05:04:34;;;;;;;18.47;17.33;;;15.90;89.80;;;;;;5052654;28;20542;-73
2021/08/08 05:07:01;;;;;;;20.43;19.00;;;16.00;89.90;;;;;;5050922;28;20528;-72
2021/08/08 05:09:29;;;;;;;19.40;18.20;;;16.00;89.70;;;;;;5052577;28;20455;-71
2021/08/08 05:11:56;;;;;;;19.73;18.63;;;16.10;89.50;;;;;;5050991;28;20491;-70
2021/08/08 05:14:23;;;;;;;18.47;17.50;;;16.20;89.20;;;;;;5055052;28;20472;-70
2021/08/08 05:16:50;;;;;;;19.17;17.67;;;16.20;89.10;;;;;;5053083;28;20566;-70
2021/08/08 05:19:17;;;;;;;18.97;18.00;;;16.30;89.00;;;;;;5049402;28;20846;-70
2021/08/08 05:21:44;;;;;;;19.07;18.07;;;16.40;88.70;;;;;;5061742;28;21122;-70
2021/08/08 05:24:11;;;;;;;19.03;18.03;;;16.40;88.50;;;;;;5057158;28;20463;-70
2021/08/08 05:26:39;;;;;;;18.77;17.70;;;16.40;88.40;;;;;;5050517;28;20491;-70
2021/08/08 05:29:06;;;;;;;19.57;18.33;;;16.50;88.30;;;;;;5051491;28;20517;-71
2021/08/08 05:31:33;;;;;;;19.60;18.67;;;16.60;88.00;;;;;;5063245;28;20449;-70
2021/08/08 05:34:00;;;;;;;19.40;18.50;;;16.60;87.80;;;;;;5048712;28;20553;-70
2021/08/08 05:36:26;;;;;;;18.97;18.07;;;16.50;87.90;;;;;;5050249;28;20846;-70
2021/08/08 05:38:53;;;;;;;19.20;18.00;;;16.60;88.00;;;;;;5048929;28;20459;-70
2021/08/08 05:41:20;;;;;;;19.33;18.03;;;16.70;87.50;;;;;;5052282;28;20877;-70
2021/08/08 05:43:48;;;;;;;19.80;18.80;;;16.80;87.40;;;;;;5050485;28;20534;-70
2021/08/08 05:46:15;;;;;;;19.57;18.27;;;16.90;87.00;;;;;;5049165;28;20463;-70
2021/08/08 05:48:42;;;;;;;19.37;18.27;;;16.90;86.50;;;;;;5049395;28;20517;-70
2021/08/08 05:51:09;;;;;;;19.30;18.40;;;16.90;85.90;;;;;;5052172;28;20462;-70
2021/08/08 05:53:36;;;;;;;19.87;18.67;;;17.00;85.90;;;;;;5052751;28;20580;-70
2021/08/08 05:56:03;;;;;;;20.17;19.07;;;17.10;85.70;;;;;;5049153;28;20542;-70
2021/08/08 05:58:30;;;;;;;20.97;19.73;;;17.20;85.30;;;;;;5051989;28;20897;-70
2021/08/08 06:00:58;;;;;;;20.23;19.13;;;17.30;84.90;;;;;;5060143;28;20466;-70
2021/08/08 06:03:25;;;;;;;20.20;19.10;;;17.40;84.20;;;;;;5049710;28;20455;-70
2021/08/08 06:05:52;;;;;;;20.70;19.50;;;17.50;84.00;;;;;;5049003;28;20949;-70
2021/08/08 06:08:19;;;;;;;21.10;19.93;;;17.50;83.80;;;;;;5048634;28;20837;-70
2021/08/08 06:10:46;;;;;;;21.00;19.90;;;17.60;83.60;;;;;;5048253;28;20569;-70
2021/08/08 06:13:13;;;;;;;20.53;19.47;;;17.70;82.80;;;;;;5052755;28;20544;-70
2021/08/08 06:15:40;;;;;;;22.57;21.03;;;17.70;82.80;;;;;;5049378;28;20472;-70
2021/08/08 06:18:09;;;;;;;21.10;20.10;;;17.80;82.70;;;;;;5048722;28;20573;-70
2021/08/08 06:20:36;;;;;;;22.27;20.83;;;17.80;82.60;;;;;;5056988;28;20466;-70
2021/08/08 06:23:03;;;;;;;23.70;22.10;;;17.90;82.20;;;;;;5056237;28;20501;-70
2021/08/08 06:25:30;;;;;;;22.57;21.20;;;17.90;81.80;;;;;;5049277;28;20468;-70
2021/08/08 06:27:57;;;;;;;22.27;20.90;;;18.00;81.80;;;;;;5058182;28;20474;-70
2021/08/08 06:30:24;;;;;;;22.07;20.67;;;18.10;81.60;;;;;;5048653;28;20458;-70
2021/08/08 06:32:51;;;;;;;22.30;21.20;;;18.30;81.30;;;;;;5050497;28;20461;-70
2021/08/08 06:35:19;;;;;;;22.40;21.20;;;18.30;81.10;;;;;;5049273;28;20475;-70
2021/08/08 06:37:46;;;;;;;22.50;21.40;;;18.40;80.90;;;;;;5048397;28;20474;-70
2021/08/08 06:40:14;;;;;;;23.27;21.90;;;18.50;80.00;;;;;;5056893;28;20465;-70
2021/08/08 06:42:41;;;;;;;24.00;22.70;;;18.60;79.80;;;;;;5052559;28;20463;-70
2021/08/08 06:45:09;;;;;;;22.57;21.37;;;18.70;79.50;;;;;;5044727;28;20755;-70
2021/08/08 06:47:36;;;;;;;25.60;24.20;;;18.70;79.50;;;;;;5047014;28;20521;-72
2021/08/08 06:50:03;;;;;;;24.50;23.30;;;18.90;78.30;;;;;;5046388;28;20479;-72
2021/08/08 06:52:31;;;;;;;24.07;22.77;;;19.00;78.00;;;;;;5048160;28;20470;-72
2021/08/08 06:54:59;;;;;;;24.73;23.33;;;19.00;77.40;;;;;;5046578;28;20447;-72
2021/08/08 06:57:27;;;;;;;24.87;23.33;;;19.00;77.30;;;;;;5046549;28;20980;-72
2021/08/08 06:59:54;;;;;;;25.00;23.60;;;19.10;77.50;;;;;;5044521;28;20465;-72
2021/08/08 07:02:21;;;;;;;25.77;24.40;;;19.10;76.70;;;;;;5049301;28;20461;-72
2021/08/08 07:04:49;;;;;;;23.70;22.50;;;19.20;76.40;;;;;;5046079;28;20466;-72
2021/08/08 07:07:16;;;;;;;24.13;22.90;;;19.30;76.30;;;;;;5056726;28;20567;-73
2021/08/08 07:09:44;;;;;;;25.33;23.83;;;19.30;76.00;;;;;;5040268;28;20844;-72
2021/08/08 07:12:11;;;;;;;25.30;23.77;;;19.40;76.60;;;;;;5047876;28;20753;-71
2021/08/08 07:14:38;;;;;;;24.60;23.40;;;19.40;75.60;;;;;;5046197;28;20469;-71
2021/08/08 07:17:05;;;;;;;24.97;23.37;;;19.60;74.90;;;;;;5047492;28;20471;-72
2021/08/08 07:19:32;;;;;;;24.50;23.10;;;19.70;74.30;;;;;;5047072;28;20451;-72
2021/08/08 07:21:59;;;;;;;24.00;22.80;;;19.70;73.80;;;;;;5050453;28;20947;-74
2021/08/08 07:24:25;;;;;;;26.87;25.43;;;19.90;73.80;;;;;;5041831;28;20458;-73
2021/08/08 07:26:54;;;;;;;24.07;22.70;;;20.10;73.80;;;;;;5051526;28;20482;-72
2021/08/08 07:29:21;;;;;;;24.10;22.80;;;20.20;74.10;;;;;;5047735;28;20487;-73
2021/08/08 07:31:48;;;;;;;23.90;22.70;;;20.40;73.40;;;;;;5055016;28;20450;-75
2021/08/08 07:34:15;;;;;;;24.80;23.20;;;20.50;72.70;;;;;;5045674;28;20459;-73
2021/08/08 07:36:42;;;;;;;26.10;24.60;;;20.30;72.50;;;;;;5049511;28;20513;-74
2021/08/08 07:39:09;;;;;;;26.73;24.80;;;20.40;72.90;;;;;;5057703;28;20958;-73
2021/08/08 07:41:36;;;;;;;25.60;24.10;;;20.50;71.50;;;;;;5054827;28;20548;-73
2021/08/08 07:44:04;;;;;;;26.20;24.80;;;20.60;70.80;;;;;;5057098;28;20549;-74
2021/08/08 07:46:31;;;;;;;25.93;24.43;;;20.70;70.70;;;;;;5048220;28;21179;-72
2021/08/08 07:48:58;;;;;;;25.47;24.17;;;20.80;70.60;;;;;;5044895;28;20484;-73
2021/08/08 07:51:26;;;;;;;23.75;22.35;;;21.00;69.90;;;;;;5046307;28;20887;-72
2021/08/08 07:53:53;;;;;;;25.57;24.07;;;21.20;69.00;;;;;;5056337;28;20192;-73
2021/08/08 07:56:20;;;;;;;25.17;23.77;;;21.20;69.10;;;;;;5049672;28;20486;-73
2021/08/08 07:58:47;;;;;;;23.50;22.00;;;21.30;68.80;;;;;;5050698;28;20461;-73
2021/08/08 08:01:15;;;;;;;25.83;24.43;;;21.50;68.20;;;;;;5049646;28;20694;-73
2021/08/08 08:03:42;;;;;;;24.93;23.43;;;21.50;67.70;;;;;;5045441;28;20474;-74
2021/08/08 08:06:09;;;;;;;25.00;23.60;;;21.50;67.50;;;;;;5050940;28;20858;-74
2021/08/08 08:08:36;;;;;;;25.93;24.10;;;21.30;67.80;;;;;;5048298;28;20505;-75
2021/08/08 08:11:03;;;;;;;25.63;24.03;;;21.40;67.40;;;;;;5049357;28;20798;-74
2021/08/08 08:13:30;;;;;;;26.13;24.53;;;21.50;67.10;;;;;;5050737;28;20474;-74
2021/08/08 08:15:57;;;;;;;29.10;27.50;;;21.60;67.30;;;;;;5045902;28;20455;-76
2021/08/08 08:18:26;;;;;;;27.40;25.90;;;21.70;67.40;;;;;;5043475;28;20455;-74
2021/08/08 08:20:53;;;;;;;27.20;25.40;;;21.80;66.90;;;;;;5042343;28;20538;-74
2021/08/08 08:23:21;;;;;;;27.80;26.10;;;22.00;66.10;;;;;;5039760;28;20490;-74
2021/08/08 08:25:48;;;;;;;25.70;24.00;;;22.20;66.30;;;;;;5040917;28;20459;-74
2021/08/08 08:28:15;;;;;;;25.50;24.00;;;22.30;65.40;;;;;;5039542;28;21105;-74
2021/08/08 08:30:42;;;;;;;27.70;26.10;;;22.40;64.60;;;;;;5041862;28;20451;-72
2021/08/08 08:33:09;;;;;;;24.03;22.73;;;22.60;64.10;;;;;;5046802;28;21053;-71
2021/08/08 08:35:38;;;;;;;25.07;23.57;;;22.80;64.10;;;;;;5048094;28;20451;-70
2021/08/08 08:38:05;;;;;;;25.83;24.50;;;23.00;63.20;;;;;;5051032;28;20490;-70
2021/08/08 08:40:36;;;;;;;25.57;24.07;;;23.00;63.00;;;;;;5048606;28;20975;-70
2021/08/08 08:43:06;;;;;;;26.90;25.30;;;23.20;62.30;;;;;;5058432;28;20454;-70
2021/08/08 08:45:38;;;;;;;26.60;25.10;;;23.30;62.10;;;;;;5043604;28;20469;-70
2021/08/08 08:48:06;;;;;;;28.10;26.20;;;23.40;62.20;;;;;;5028302;28;20558;-70
2021/08/08 08:50:35;;;;;;;27.73;26.13;;;23.50;61.70;;;;;;5020360;28;20468;-70
2021/08/08 08:53:04;;;;;;;24.98;23.48;;;23.60;60.40;;;;;;5024602;28;20465;-71
2021/08/08 08:55:31;;;;;;;25.60;24.20;;;23.90;59.60;;;;;;5026002;28;20271;-71
2021/08/08 08:57:59;;;;;;;27.40;25.80;;;23.70;60.00;;;;;;5023931;28;20505;-71
2021/08/08 09:00:26;;;;;;;27.03;25.50;;;23.50;60.40;;;;;;5037514;28;20466;-71
2021/08/08 09:02:54;;;;;;;27.13;25.60;;;23.30;61.30;;;;;;5037095;28;21340;-71
2021/08/08 09:05:21;;;;;;;28.40;26.70;;;23.00;60.40;;;;;;5031549;28;20461;-73
2021/08/08 09:07:48;;;;;;;26.60;25.00;;;22.60;61.50;;;;;;5025004;28;20890;-74
2021/08/08 09:10:16;;;;;;;26.37;24.87;;;22.50;61.80;;;;;;5025363;28;20549;-73
2021/08/08 09:12:44;;;;;;;25.97;24.57;;;22.70;62.60;;;;;;5028826;28;20462;-72
2021/08/08 09:15:12;;;;;;;25.80;24.30;;;23.10;62.40;;;;;;5028164;28;20546;-72
2021/08/08 09:17:40;;;;;;;28.00;26.43;;;23.40;60.00;;;;;;5014160;28;20575;-72
2021/08/08 09:20:10;;;;;;;26.80;25.30;;;23.50;58.10;;;;;;5023271;28;20467;-72
2021/08/08 09:22:37;;;;;;;27.03;25.67;;;23.50;58.70;;;;;;5025816;28;20521;-72
2021/08/08 09:25:07;;;;;;;26.93;25.53;;;23.70;59.40;;;;;;5024928;28;20487;-76
2021/08/08 09:27:37;;;;;;;26.50;25.07;;;23.90;59.10;;;;;;5023058;28;20479;-72
2021/08/08 09:30:16;;;;;;;26.40;25.00;;;24.10;57.50;;;;;;5032222;28;20464;-73
2021/08/08 09:32:43;;;;;;;27.37;25.77;;;24.30;57.90;;;;;;5023882;28;20530;-72
2021/08/08 09:35:13;;;;;;;29.70;28.00;;;24.40;57.80;;;;;;5024673;28;20813;-73
2021/08/08 09:37:41;;;;;;;27.33;25.67;;;24.60;57.20;;;;;;5032242;28;20506;-73
2021/08/08 09:40:15;;;;;;;27.40;25.80;;;24.60;57.50;;;;;;5026476;28;20470;-72
2021/08/08 09:42:47;;;;;;;26.37;24.97;;;24.70;57.60;;;;;;5022866;28;20480;-72
2021/08/08 09:45:17;;;;;;;26.57;25.07;;;24.90;56.80;;;;;;5027193;28;20472;-72
2021/08/08 09:47:45;;;;;;;27.50;25.77;;;24.90;57.00;;;;;;5026448;28;20480;-72
2021/08/08 09:50:13;;;;;;;28.73;27.33;;;25.10;55.90;;;;;;5022820;28;20574;-73
2021/08/08 09:52:41;;;;;;;25.50;24.10;;;25.00;55.30;;;;;;5027308;28;20459;-72
2021/08/08 09:55:19;;;;;;;28.23;26.63;;;25.00;54.90;;;;;;5026025;28;20468;-72
2021/08/08 09:57:47;;;;;;;25.53;24.13;;;25.00;54.70;;;;;;5028846;28;20478;-73
2021/08/08 10:00:25;;;;;;;27.97;26.37;;;25.00;53.20;;;;;;5026762;28;20575;-73
2021/08/08 10:02:52;;;;;;;26.30;24.70;;;24.80;52.90;;;;;;5028917;28;20467;-72
2021/08/08 10:05:20;;;;;;;26.60;25.10;;;24.50;52.90;;;;;;5027321;28;20460;-72
2021/08/08 10:07:47;;;;;;;28.93;27.43;;;24.50;53.70;;;;;;5029237;28;20482;-72
2021/08/08 10:10:15;;;;;;;26.50;25.10;;;24.40;53.50;;;;;;5025652;28;20512;-72
2021/08/08 10:13:12;;;;;;;27.10;25.67;;;24.30;54.20;;;;;;5026699;28;20488;-73
2021/08/08 10:15:43;;;;;;;27.27;25.77;;;24.60;54.20;;;;;;5019045;28;20471;-72
2021/08/08 10:18:13;;;;;;;28.80;27.30;;;24.70;53.60;;;;;;5020613;28;20475;-72
2021/08/08 10:20:41;;;;;;;28.10;26.30;;;24.60;54.50;;;;;;5015523;28;20547;-73
2021/08/08 10:23:13;;;;;;;29.27;27.33;;;24.60;54.10;;;;;;5020714;28;20466;-72
2021/08/08 10:25:40;;;;;;;28.33;26.63;;;24.50;54.80;;;;;;5019875;28;20475;-72
2021/08/08 10:28:11;;;;;;;28.07;26.50;;;24.60;54.70;;;;;;5026161;28;20478;-72
2021/08/08 10:30:39;;;;;;;28.37;26.67;;;24.50;54.30;;;;;;5018126;28;20463;-73
2021/08/08 10:33:08;;;;;;;26.70;25.40;;;24.50;53.60;;;;;;5025433;28;20455;-74
2021/08/08 10:35:39;;;;;;;25.40;24.00;;;24.30;54.30;;;;;;5025274;28;20539;-73
2021/08/08 10:38:07;;;;;;;26.40;25.00;;;24.30;53.90;;;;;;5028260;28;20479;-75
2021/08/08 10:40:37;;;;;;;25.80;24.30;;;24.40;53.40;;;;;;5027285;28;20989;-72
2021/08/08 10:43:05;;;;;;;26.90;25.47;;;24.30;54.20;;;;;;5025917;28;20498;-73
2021/08/08 10:45:35;;;;;;;26.27;24.83;;;24.30;53.00;;;;;;5027289;28;20460;-73
2021/08/08 10:48:04;;;;;;;26.57;25.17;;;24.30;53.60;;;;;;5025347;28;20993;-71
2021/08/08 10:50:42;;;;;;;26.87;25.30;;;24.30;53.80;;;;;;5019343;28;20478;-70
2021/08/08 10:53:21;;;;;;;25.67;24.23;;;24.40;53.30;;;;;;5023732;28;20460;-70
2021/08/08 10:55:49;;;;;;;26.03;24.57;;;24.40;53.10;;;;;;5025750;28;20456;-70
2021/08/08 10:58:17;;;;;;;26.17;24.80;;;24.30;53.70;;;;;;5023653;28;20497;-70
2021/08/08 11:00:45;;;;;;;28.23;26.53;;;24.40;53.00;;;;;;5026141;28;20462;-70
2021/08/08 11:03:14;;;;;;;28.77;26.97;;;24.40;53.10;;;;;;5026070;28;20479;-70
2021/08/08 11:05:41;;;;;;;29.50;27.73;;;24.60;53.50;;;;;;5014433;28;20947;-70
2021/08/08 11:08:09;;;;;;;27.67;26.23;;;24.60;52.80;;;;;;5033239;28;20475;-70
2021/08/08 11:10:40;;;;;;;26.10;24.70;;;24.80;52.60;;;;;;5025782;28;20472;-69
2021/08/08 11:13:22;;;;;;;26.03;24.67;;;24.80;52.90;;;;;;5025117;28;20460;-69
2021/08/08 11:15:52;;;;;;;27.33;25.83;;;24.50;52.10;;;;;;5026078;28;20517;-70
2021/08/08 11:18:29;;;;;;;29.03;27.37;;;24.60;53.30;;;;;;5028858;28;20534;-70
2021/08/08 11:20:56;;;;;;;28.00;26.40;;;24.90;53.30;;;;;;5031334;28;20592;-70
2021/08/08 11:23:30;;;;;;;27.70;26.10;;;25.00;52.80;;;;;;5026237;28;20451;-70
2021/08/08 11:26:00;;;;;;;29.73;28.17;;;25.30;53.20;;;;;;5030750;28;20821;-70
2021/08/08 11:28:27;;;;;;;26.03;24.43;;;25.60;51.60;;;;;;5038502;28;20550;-70
2021/08/08 11:30:56;;;;;;;25.90;24.50;;;25.90;51.70;;;;;;5027226;28;20460;-70
2021/08/08 11:33:26;;;;;;;28.67;27.17;;;25.90;50.90;;;;;;5024153;28;20486;-70
2021/08/08 11:36:00;;;;;;;26.10;24.60;;;25.60;50.20;;;;;;5029148;28;20464;-70
2021/08/08 11:38:30;;;;;;;26.43;24.93;;;25.60;50.40;;;;;;5025528;28;20459;-70
2021/08/08 11:40:58;;;;;;;28.00;26.60;;;25.60;51.00;;;;;;5024879;28;20582;-70
2021/08/08 11:43:31;;;;;;;27.30;25.80;;;25.40;51.20;;;;;;5026931;28;21004;-70
2021/08/08 11:46:01;;;;;;;28.93;27.33;;;25.30;50.50;;;;;;5026709;28;20456;-70
2021/08/08 11:48:31;;;;;;;28.33;26.83;;;25.10;50.90;;;;;;5026816;28;20831;-70
2021/08/08 11:50:58;;;;;;;27.13;25.70;;;25.00;51.90;;;;;;5025851;28;20469;-70
2021/08/08 11:53:33;;;;;;;28.67;27.17;;;24.80;52.20;;;;;;5026968;28;20460;-70
2021/08/08 11:56:14;;;;;;;26.03;24.73;;;24.70;51.90;;;;;;5024751;28;20735;-70
2021/08/08 11:58:45;;;;;;;26.87;25.37;;;24.50;51.20;;;;;;5025864;28;21186;-73
2021/08/08 12:01:13;;;;;;;26.43;24.73;;;24.50;52.30;;;;;;5019559;28;20477;-77
2021/08/08 12:03:42;;;;;;;26.03;24.57;;;24.50;52.10;;;;;;5022892;28;21236;-74
2021/08/08 12:06:09;;;;;;;25.63;24.23;;;24.40;52.20;;;;;;5020697;28;20484;-76
2021/08/08 12:08:36;;;;;;;24.30;23.00;;;24.40;52.30;;;;;;5025246;28;20562;-72
2021/08/08 12:11:03;;;;;;;24.33;23.03;;;24.10;52.50;;;;;;5029939;28;20460;-70
2021/08/08 12:13:30;;;;;;;25.23;23.93;;;23.00;52.40;;;;;;5029634;28;20460;-69
2021/08/08 12:15:57;;;;;;;24.60;23.30;;;22.40;53.50;;;;;;5029634;28;20553;-69
2021/08/08 12:18:30;;;;;;;23.63;22.33;;;22.20;52.70;;;;;;5031358;28;20463;-70
2021/08/08 12:20:57;;;;;;;26.20;24.73;;;21.70;52.90;;;;;;5027991;28;20513;-69
2021/08/08 12:23:26;;;;;;;27.13;25.73;;;21.50;54.20;;;;;;5029326;28;20968;-70
2021/08/08 12:26:03;;;;;;;24.17;22.87;;;21.50;53.20;;;;;;5028236;28;20464;-70
2021/08/08 12:28:30;;;;;;;24.00;22.80;;;21.60;54.10;;;;;;5030852;28;20539;-69
2021/08/08 12:31:06;;;;;;;26.80;25.30;;;22.00;53.60;;;;;;5029504;28;20490;-69
2021/08/08 12:33:34;;;;;;;26.37;25.17;;;21.80;53.50;;;;;;5030703;28;20455;-69